Adrian, North Dakota
Current Conditions -  °F | °C
As of 9:56 AM on Thursday 27 Nov 2014 (Local Time) from KJMS Reporting Station
Clear Clear  
Wind Chill: -29°   Ceiling: Unl
Heat Index: -21°   Visibility: 10mi
Dew Point: -26°   Wind: 7mph
Humidity: 68%   Direction: 170°S
Pressure: 30.37"   Gusts: NA
Location:  46.6526°N, 98.6214°W
Report Text: KJMS 271556Z AUTO 17006KT 10SM CLR M21/M26 A3037 RMK AO2 SLP340 T12111256
Loading
Personal Weather Stations






























Interactive Weather Map New forecast layout! Learn more

10-Day Weather Forecast

Advertisements
Track Severe Weather on mobile